Weather at Málaga Airport

Public forecast

Using degrees Celsius for public forecast. Weather courtesy of forecast.io.

Current aviation weather report (METAR) for Málaga Airport

Retrieved 2021/01/25 03:30 UTC (23 minutes ago):

LEMG 250330Z 28005KT 9999 SCT060 BKN080 14/09 Q1018 NOSIG

Aviation forecast (TAF) for Málaga Airport

Retrieved 2021-01-25 00:27 UTC (3 hours ago):

TAF LEMG 242300Z 2500/2524 30008KT 9999 FEW030 TX21/2513Z TN12/2507Z PROB30 TEMPO 2510/2516 12005KT RA